sensor_id;sensor_type;location;lat;lon;timestamp;P1;durP1;ratioP1;P2;durP2;ratioP2
70367;SDS011;57789;53.868;10.728;2023-08-20T00:01:40;8.07;;;4.90;;
70367;SDS011;57789;53.868;10.728;2023-08-20T00:04:09;9.83;;;4.33;;
70367;SDS011;57789;53.868;10.728;2023-08-20T00:06:38;6.40;;;4.70;;
70367;SDS011;57789;53.868;10.728;2023-08-20T00:09:07;9.77;;;6.13;;
70367;SDS011;57789;53.868;10.728;2023-08-20T00:11:34;6.53;;;4.97;;
70367;SDS011;57789;53.868;10.728;2023-08-20T00:14:01;14.00;;;6.43;;
70367;SDS011;57789;53.868;10.728;2023-08-20T00:16:28;10.00;;;6.30;;
70367;SDS011;57789;53.868;10.728;2023-08-20T00:18:57;9.83;;;6.17;;
70367;SDS011;57789;53.868;10.728;2023-08-20T00:21:29;10.43;;;7.00;;
70367;SDS011;57789;53.868;10.728;2023-08-20T00:23:56;12.07;;;6.97;;
70367;SDS011;57789;53.868;10.728;2023-08-20T00:26:23;18.43;;;7.20;;
70367;SDS011;57789;53.868;10.728;2023-08-20T00:28:50;19.67;;;7.37;;
70367;SDS011;57789;53.868;10.728;2023-08-20T00:31:17;18.23;;;8.47;;
70367;SDS011;57789;53.868;10.728;2023-08-20T00:33:45;17.87;;;7.50;;
70367;SDS011;57789;53.868;10.728;2023-08-20T00:36:13;15.93;;;8.23;;
70367;SDS011;57789;53.868;10.728;2023-08-20T00:38:41;14.13;;;9.17;;
70367;SDS011;57789;53.868;10.728;2023-08-20T00:41:08;20.23;;;10.70;;
70367;SDS011;57789;53.868;10.728;2023-08-20T00:43:34;19.70;;;10.63;;
70367;SDS011;57789;53.868;10.728;2023-08-20T00:46:00;18.10;;;9.70;;
70367;SDS011;57789;53.868;10.728;2023-08-20T00:48:26;26.73;;;10.10;;
70367;SDS011;57789;53.868;10.728;2023-08-20T00:50:57;16.83;;;10.30;;
70367;SDS011;57789;53.868;10.728;2023-08-20T00:53:24;21.40;;;8.77;;
70367;SDS011;57789;53.868;10.728;2023-08-20T00:55:52;24.77;;;10.83;;
70367;SDS011;57789;53.868;10.728;2023-08-20T00:58:18;20.33;;;9.20;;
70367;SDS011;57789;53.868;10.728;2023-08-20T01:00:48;17.30;;;9.30;;
70367;SDS011;57789;53.868;10.728;2023-08-20T01:03:14;22.87;;;9.10;;
70367;SDS011;57789;53.868;10.728;2023-08-20T01:05:42;14.43;;;10.20;;
70367;SDS011;57789;53.868;10.728;2023-08-20T01:08:22;19.20;;;9.93;;
70367;SDS011;57789;53.868;10.728;2023-08-20T01:11:02;30.87;;;10.70;;
70367;SDS011;57789;53.868;10.728;2023-08-20T01:13:37;21.20;;;11.60;;
70367;SDS011;57789;53.868;10.728;2023-08-20T01:16:03;19.17;;;10.67;;
70367;SDS011;57789;53.868;10.728;2023-08-20T01:18:29;15.83;;;9.90;;
70367;SDS011;57789;53.868;10.728;2023-08-20T01:21:01;18.10;;;12.27;;
70367;SDS011;57789;53.868;10.728;2023-08-20T01:28:41;20.27;;;11.50;;
70367;SDS011;57789;53.868;10.728;2023-08-20T01:31:08;16.67;;;10.30;;
70367;SDS011;57789;53.868;10.728;2023-08-20T01:33:36;26.97;;;11.97;;
70367;SDS011;57789;53.868;10.728;2023-08-20T01:36:07;21.87;;;12.40;;
70367;SDS011;57789;53.868;10.728;2023-08-20T01:38:37;21.07;;;12.40;;
70367;SDS011;57789;53.868;10.728;2023-08-20T01:41:04;22.97;;;13.17;;
70367;SDS011;57789;53.868;10.728;2023-08-20T01:43:30;19.03;;;11.10;;
70367;SDS011;57789;53.868;10.728;2023-08-20T01:45:58;23.07;;;11.27;;
70367;SDS011;57789;53.868;10.728;2023-08-20T01:48:27;24.07;;;13.13;;
70367;SDS011;57789;53.868;10.728;2023-08-20T01:50:54;19.83;;;12.00;;
70367;SDS011;57789;53.868;10.728;2023-08-20T01:53:22;28.73;;;13.50;;
70367;SDS011;57789;53.868;10.728;2023-08-20T01:55:49;23.97;;;13.40;;
70367;SDS011;57789;53.868;10.728;2023-08-20T01:58:15;24.27;;;13.40;;
70367;SDS011;57789;53.868;10.728;2023-08-20T02:00:42;19.27;;;12.83;;
70367;SDS011;57789;53.868;10.728;2023-08-20T02:03:11;25.00;;;12.67;;
70367;SDS011;57789;53.868;10.728;2023-08-20T02:05:37;30.23;;;13.80;;
70367;SDS011;57789;53.868;10.728;2023-08-20T02:08:04;24.70;;;12.03;;
70367;SDS011;57789;53.868;10.728;2023-08-20T02:10:30;20.20;;;12.40;;
70367;SDS011;57789;53.868;10.728;2023-08-20T02:12:57;21.97;;;13.33;;
70367;SDS011;57789;53.868;10.728;2023-08-20T02:15:24;19.57;;;12.00;;
70367;SDS011;57789;53.868;10.728;2023-08-20T02:17:49;27.53;;;12.03;;
70367;SDS011;57789;53.868;10.728;2023-08-20T02:20:15;21.60;;;11.93;;
70367;SDS011;57789;53.868;10.728;2023-08-20T02:22:41;27.53;;;12.43;;
70367;SDS011;57789;53.868;10.728;2023-08-20T02:25:07;22.40;;;11.83;;
70367;SDS011;57789;53.868;10.728;2023-08-20T02:27:33;20.33;;;12.33;;
70367;SDS011;57789;53.868;10.728;2023-08-20T02:29:59;21.67;;;13.77;;
70367;SDS011;57789;53.868;10.728;2023-08-20T02:32:24;24.17;;;12.93;;
70367;SDS011;57789;53.868;10.728;2023-08-20T02:34:50;22.30;;;12.53;;
70367;SDS011;57789;53.868;10.728;2023-08-20T02:37:16;23.40;;;13.47;;
70367;SDS011;57789;53.868;10.728;2023-08-20T02:39:42;24.40;;;12.97;;
70367;SDS011;57789;53.868;10.728;2023-08-20T02:42:08;27.03;;;14.27;;
70367;SDS011;57789;53.868;10.728;2023-08-20T02:44:33;28.90;;;13.60;;
70367;SDS011;57789;53.868;10.728;2023-08-20T02:46:59;21.23;;;13.57;;
70367;SDS011;57789;53.868;10.728;2023-08-20T02:49:25;27.57;;;13.33;;
70367;SDS011;57789;53.868;10.728;2023-08-20T02:51:50;27.67;;;13.90;;
70367;SDS011;57789;53.868;10.728;2023-08-20T02:54:16;26.13;;;12.40;;
70367;SDS011;57789;53.868;10.728;2023-08-20T02:56:42;29.43;;;12.87;;
70367;SDS011;57789;53.868;10.728;2023-08-20T02:59:07;20.90;;;11.60;;
70367;SDS011;57789;53.868;10.728;2023-08-20T03:01:33;19.50;;;11.43;;
70367;SDS011;57789;53.868;10.728;2023-08-20T03:03:59;29.33;;;12.57;;
70367;SDS011;57789;53.868;10.728;2023-08-20T03:06:25;25.97;;;11.37;;
70367;SDS011;57789;53.868;10.728;2023-08-20T03:08:53;17.97;;;12.93;;
70367;SDS011;57789;53.868;10.728;2023-08-20T03:11:19;23.93;;;12.20;;
70367;SDS011;57789;53.868;10.728;2023-08-20T03:13:45;16.80;;;11.03;;
70367;SDS011;57789;53.868;10.728;2023-08-20T03:16:11;21.30;;;11.27;;
70367;SDS011;57789;53.868;10.728;2023-08-20T03:18:36;20.00;;;12.33;;
70367;SDS011;57789;53.868;10.728;2023-08-20T03:21:02;21.80;;;12.67;;
70367;SDS011;57789;53.868;10.728;2023-08-20T03:23:28;18.50;;;10.57;;
70367;SDS011;57789;53.868;10.728;2023-08-20T03:25:57;22.80;;;11.90;;
70367;SDS011;57789;53.868;10.728;2023-08-20T03:28:24;19.27;;;10.10;;
70367;SDS011;57789;53.868;10.728;2023-08-20T03:30:50;21.53;;;10.20;;
70367;SDS011;57789;53.868;10.728;2023-08-20T03:33:16;17.53;;;10.23;;
70367;SDS011;57789;53.868;10.728;2023-08-20T03:35:42;19.23;;;11.17;;
70367;SDS011;57789;53.868;10.728;2023-08-20T03:38:08;21.37;;;11.17;;
70367;SDS011;57789;53.868;10.728;2023-08-20T03:40:34;27.17;;;12.90;;
70367;SDS011;57789;53.868;10.728;2023-08-20T03:43:05;19.13;;;11.03;;
70367;SDS011;57789;53.868;10.728;2023-08-20T03:45:32;20.23;;;12.27;;
70367;SDS011;57789;53.868;10.728;2023-08-20T03:47:59;20.07;;;11.43;;
70367;SDS011;57789;53.868;10.728;2023-08-20T03:50:33;27.20;;;11.47;;
70367;SDS011;57789;53.868;10.728;2023-08-20T03:53:00;25.33;;;11.73;;
70367;SDS011;57789;53.868;10.728;2023-08-20T03:55:26;20.33;;;11.93;;
70367;SDS011;57789;53.868;10.728;2023-08-20T03:57:54;20.37;;;11.10;;
70367;SDS011;57789;53.868;10.728;2023-08-20T04:00:19;27.43;;;13.30;;
70367;SDS011;57789;53.868;10.728;2023-08-20T04:02:45;30.23;;;10.30;;
70367;SDS011;57789;53.868;10.728;2023-08-20T04:05:11;19.27;;;12.13;;
70367;SDS011;57789;53.868;10.728;2023-08-20T04:07:36;19.33;;;9.90;;
70367;SDS011;57789;53.868;10.728;2023-08-20T04:10:02;18.73;;;10.83;;
70367;SDS011;57789;53.868;10.728;2023-08-20T04:12:28;35.10;;;11.97;;
70367;SDS011;57789;53.868;10.728;2023-08-20T04:14:54;19.47;;;12.00;;
70367;SDS011;57789;53.868;10.728;2023-08-20T04:17:20;24.47;;;12.23;;
70367;SDS011;57789;53.868;10.728;2023-08-20T04:19:46;26.20;;;11.63;;
70367;SDS011;57789;53.868;10.728;2023-08-20T04:22:11;16.80;;;10.40;;
70367;SDS011;57789;53.868;10.728;2023-08-20T04:24:38;17.00;;;10.60;;
70367;SDS011;57789;53.868;10.728;2023-08-20T04:27:04;22.30;;;10.50;;
70367;SDS011;57789;53.868;10.728;2023-08-20T04:29:30;14.67;;;10.43;;
70367;SDS011;57789;53.868;10.728;2023-08-20T04:31:56;21.30;;;9.47;;
70367;SDS011;57789;53.868;10.728;2023-08-20T04:34:22;13.53;;;9.33;;
70367;SDS011;57789;53.868;10.728;2023-08-20T04:36:49;14.80;;;9.60;;
70367;SDS011;57789;53.868;10.728;2023-08-20T04:39:18;13.83;;;10.40;;
70367;SDS011;57789;53.868;10.728;2023-08-20T04:41:45;22.87;;;9.67;;
70367;SDS011;57789;53.868;10.728;2023-08-20T04:44:19;13.13;;;8.97;;
70367;SDS011;57789;53.868;10.728;2023-08-20T04:46:45;12.90;;;9.20;;
70367;SDS011;57789;53.868;10.728;2023-08-20T04:49:13;12.50;;;8.40;;
70367;SDS011;57789;53.868;10.728;2023-08-20T04:51:39;12.23;;;8.53;;
70367;SDS011;57789;53.868;10.728;2023-08-20T04:54:06;16.17;;;7.80;;
70367;SDS011;57789;53.868;10.728;2023-08-20T04:56:33;10.00;;;7.03;;
70367;SDS011;57789;53.868;10.728;2023-08-20T04:59:01;13.80;;;8.30;;
70367;SDS011;57789;53.868;10.728;2023-08-20T05:01:32;15.87;;;9.13;;
70367;SDS011;57789;53.868;10.728;2023-08-20T05:03:58;13.90;;;8.10;;
70367;SDS011;57789;53.868;10.728;2023-08-20T05:06:24;14.07;;;8.20;;
70367;SDS011;57789;53.868;10.728;2023-08-20T05:08:51;12.60;;;7.67;;
70367;SDS011;57789;53.868;10.728;2023-08-20T05:11:17;14.70;;;7.77;;
70367;SDS011;57789;53.868;10.728;2023-08-20T05:13:44;15.93;;;9.17;;
70367;SDS011;57789;53.868;10.728;2023-08-20T05:16:12;14.97;;;8.03;;
70367;SDS011;57789;53.868;10.728;2023-08-20T05:18:38;18.33;;;10.53;;
70367;SDS011;57789;53.868;10.728;2023-08-20T05:21:13;15.40;;;8.60;;
70367;SDS011;57789;53.868;10.728;2023-08-20T05:23:40;14.70;;;8.27;;
70367;SDS011;57789;53.868;10.728;2023-08-20T05:26:06;15.00;;;8.20;;
70367;SDS011;57789;53.868;10.728;2023-08-20T05:28:33;19.50;;;11.47;;
70367;SDS011;57789;53.868;10.728;2023-08-20T05:30:59;17.73;;;10.40;;
70367;SDS011;57789;53.868;10.728;2023-08-20T05:33:25;19.70;;;10.23;;
70367;SDS011;57789;53.868;10.728;2023-08-20T05:35:51;16.37;;;9.50;;
70367;SDS011;57789;53.868;10.728;2023-08-20T05:38:18;20.60;;;10.27;;
70367;SDS011;57789;53.868;10.728;2023-08-20T05:40:44;22.60;;;11.33;;
70367;SDS011;57789;53.868;10.728;2023-08-20T05:43:10;21.27;;;11.60;;
70367;SDS011;57789;53.868;10.728;2023-08-20T05:45:45;18.67;;;10.80;;
70367;SDS011;57789;53.868;10.728;2023-08-20T05:48:11;16.80;;;10.47;;
70367;SDS011;57789;53.868;10.728;2023-08-20T05:50:37;19.67;;;10.60;;
70367;SDS011;57789;53.868;10.728;2023-08-20T05:53:03;17.30;;;8.80;;
70367;SDS011;57789;53.868;10.728;2023-08-20T05:55:29;22.53;;;12.17;;
70367;SDS011;57789;53.868;10.728;2023-08-20T05:57:55;24.70;;;9.60;;
70367;SDS011;57789;53.868;10.728;2023-08-20T06:00:21;15.40;;;9.83;;
70367;SDS011;57789;53.868;10.728;2023-08-20T06:02:47;27.13;;;11.43;;
70367;SDS011;57789;53.868;10.728;2023-08-20T06:05:13;20.60;;;12.57;;
70367;SDS011;57789;53.868;10.728;2023-08-20T06:07:40;23.97;;;12.00;;
70367;SDS011;57789;53.868;10.728;2023-08-20T06:10:07;24.13;;;10.53;;
70367;SDS011;57789;53.868;10.728;2023-08-20T06:12:33;21.23;;;10.90;;
70367;SDS011;57789;53.868;10.728;2023-08-20T06:15:08;23.30;;;11.63;;
70367;SDS011;57789;53.868;10.728;2023-08-20T06:17:37;24.00;;;10.70;;
70367;SDS011;57789;53.868;10.728;2023-08-20T06:20:06;24.33;;;12.63;;
70367;SDS011;57789;53.868;10.728;2023-08-20T06:25:25;25.10;;;13.20;;
70367;SDS011;57789;53.868;10.728;2023-08-20T06:27:53;19.20;;;12.17;;
70367;SDS011;57789;53.868;10.728;2023-08-20T06:30:22;29.60;;;12.50;;
70367;SDS011;57789;53.868;10.728;2023-08-20T06:32:48;24.10;;;13.00;;
70367;SDS011;57789;53.868;10.728;2023-08-20T06:35:14;25.47;;;11.87;;
70367;SDS011;57789;53.868;10.728;2023-08-20T06:37:40;22.00;;;12.77;;
70367;SDS011;57789;53.868;10.728;2023-08-20T06:40:07;28.10;;;13.03;;
70367;SDS011;57789;53.868;10.728;2023-08-20T06:42:33;21.60;;;11.33;;
70367;SDS011;57789;53.868;10.728;2023-08-20T06:45:00;33.53;;;12.83;;
70367;SDS011;57789;53.868;10.728;2023-08-20T06:47:25;18.30;;;10.53;;
70367;SDS011;57789;53.868;10.728;2023-08-20T06:49:51;21.97;;;11.83;;
70367;SDS011;57789;53.868;10.728;2023-08-20T06:52:17;29.90;;;12.67;;
70367;SDS011;57789;53.868;10.728;2023-08-20T06:54:44;21.03;;;11.60;;
70367;SDS011;57789;53.868;10.728;2023-08-20T06:57:12;14.80;;;11.60;;
70367;SDS011;57789;53.868;10.728;2023-08-20T06:59:40;22.57;;;12.57;;
70367;SDS011;57789;53.868;10.728;2023-08-20T07:02:13;20.03;;;12.37;;
70367;SDS011;57789;53.868;10.728;2023-08-20T07:04:42;25.67;;;12.50;;
70367;SDS011;57789;53.868;10.728;2023-08-20T07:07:07;30.37;;;11.70;;
70367;SDS011;57789;53.868;10.728;2023-08-20T07:09:37;17.77;;;11.77;;
70367;SDS011;57789;53.868;10.728;2023-08-20T07:12:03;22.80;;;11.43;;
70367;SDS011;57789;53.868;10.728;2023-08-20T07:14:31;19.83;;;11.63;;
70367;SDS011;57789;53.868;10.728;2023-08-20T07:16:57;15.77;;;9.60;;
70367;SDS011;57789;53.868;10.728;2023-08-20T07:19:25;19.07;;;9.50;;
70367;SDS011;57789;53.868;10.728;2023-08-20T07:21:51;24.03;;;9.60;;
70367;SDS011;57789;53.868;10.728;2023-08-20T07:24:16;18.73;;;8.33;;
70367;SDS011;57789;53.868;10.728;2023-08-20T07:26:43;15.03;;;8.20;;
70367;SDS011;57789;53.868;10.728;2023-08-20T07:29:09;17.47;;;7.47;;
70367;SDS011;57789;53.868;10.728;2023-08-20T07:31:37;20.53;;;8.97;;
70367;SDS011;57789;53.868;10.728;2023-08-20T07:34:03;14.50;;;7.13;;
70367;SDS011;57789;53.868;10.728;2023-08-20T07:36:30;19.33;;;8.63;;
70367;SDS011;57789;53.868;10.728;2023-08-20T07:38:55;15.53;;;7.80;;
70367;SDS011;57789;53.868;10.728;2023-08-20T07:41:21;15.97;;;7.80;;
70367;SDS011;57789;53.868;10.728;2023-08-20T07:43:47;22.57;;;7.83;;
70367;SDS011;57789;53.868;10.728;2023-08-20T07:46:14;10.80;;;5.83;;
70367;SDS011;57789;53.868;10.728;2023-08-20T07:48:40;12.50;;;6.03;;
70367;SDS011;57789;53.868;10.728;2023-08-20T07:51:06;18.50;;;6.80;;
70367;SDS011;57789;53.868;10.728;2023-08-20T07:53:33;7.73;;;5.10;;
70367;SDS011;57789;53.868;10.728;2023-08-20T07:56:00;23.07;;;6.73;;
70367;SDS011;57789;53.868;10.728;2023-08-20T07:58:27;18.73;;;6.80;;
70367;SDS011;57789;53.868;10.728;2023-08-20T08:00:53;16.67;;;5.23;;
70367;SDS011;57789;53.868;10.728;2023-08-20T08:03:20;21.50;;;5.43;;
70367;SDS011;57789;53.868;10.728;2023-08-20T08:05:46;12.57;;;5.30;;
70367;SDS011;57789;53.868;10.728;2023-08-20T08:08:13;11.70;;;3.83;;
70367;SDS011;57789;53.868;10.728;2023-08-20T08:10:46;10.40;;;4.00;;
70367;SDS011;57789;53.868;10.728;2023-08-20T08:13:20;9.47;;;3.60;;
70367;SDS011;57789;53.868;10.728;2023-08-20T08:15:47;16.13;;;4.30;;
70367;SDS011;57789;53.868;10.728;2023-08-20T08:18:17;12.67;;;4.10;;
70367;SDS011;57789;53.868;10.728;2023-08-20T08:20:45;8.60;;;2.73;;
70367;SDS011;57789;53.868;10.728;2023-08-20T08:23:14;10.80;;;3.63;;
70367;SDS011;57789;53.868;10.728;2023-08-20T08:25:40;7.77;;;2.50;;
70367;SDS011;57789;53.868;10.728;2023-08-20T08:28:06;9.20;;;3.53;;
70367;SDS011;57789;53.868;10.728;2023-08-20T08:30:33;9.50;;;3.23;;
70367;SDS011;57789;53.868;10.728;2023-08-20T08:32:59;11.57;;;3.27;;
70367;SDS011;57789;53.868;10.728;2023-08-20T08:35:25;9.30;;;3.00;;
70367;SDS011;57789;53.868;10.728;2023-08-20T08:37:51;6.80;;;2.60;;
70367;SDS011;57789;53.868;10.728;2023-08-20T08:40:20;10.83;;;2.67;;
70367;SDS011;57789;53.868;10.728;2023-08-20T08:42:49;13.33;;;3.13;;
70367;SDS011;57789;53.868;10.728;2023-08-20T08:45:20;13.03;;;2.23;;
70367;SDS011;57789;53.868;10.728;2023-08-20T08:47:52;13.10;;;3.60;;
70367;SDS011;57789;53.868;10.728;2023-08-20T08:50:21;10.17;;;3.00;;
70367;SDS011;57789;53.868;10.728;2023-08-20T08:52:47;16.03;;;4.47;;
70367;SDS011;57789;53.868;10.728;2023-08-20T08:55:19;9.00;;;2.83;;
70367;SDS011;57789;53.868;10.728;2023-08-20T08:57:46;14.50;;;2.70;;
70367;SDS011;57789;53.868;10.728;2023-08-20T09:00:18;5.83;;;1.73;;
70367;SDS011;57789;53.868;10.728;2023-08-20T09:02:45;13.40;;;4.00;;
70367;SDS011;57789;53.868;10.728;2023-08-20T09:05:15;8.63;;;2.30;;
70367;SDS011;57789;53.868;10.728;2023-08-20T09:07:42;7.50;;;1.70;;
70367;SDS011;57789;53.868;10.728;2023-08-20T09:10:10;10.37;;;3.60;;
70367;SDS011;57789;53.868;10.728;2023-08-20T09:12:38;8.67;;;1.57;;
70367;SDS011;57789;53.868;10.728;2023-08-20T09:15:09;8.07;;;1.93;;
70367;SDS011;57789;53.868;10.728;2023-08-20T09:17:37;9.00;;;2.20;;
70367;SDS011;57789;53.868;10.728;2023-08-20T09:20:07;9.43;;;2.23;;
70367;SDS011;57789;53.868;10.728;2023-08-20T09:22:35;7.87;;;2.17;;
70367;SDS011;57789;53.868;10.728;2023-08-20T09:25:07;10.10;;;2.37;;
70367;SDS011;57789;53.868;10.728;2023-08-20T09:27:42;7.17;;;2.33;;
70367;SDS011;57789;53.868;10.728;2023-08-20T09:30:20;13.97;;;3.10;;
70367;SDS011;57789;53.868;10.728;2023-08-20T09:33:02;6.60;;;2.03;;
70367;SDS011;57789;53.868;10.728;2023-08-20T09:42:23;9.17;;;1.87;;
70367;SDS011;57789;53.868;10.728;2023-08-20T09:44:53;8.80;;;1.73;;
70367;SDS011;57789;53.868;10.728;2023-08-20T09:47:19;7.10;;;1.80;;
70367;SDS011;57789;53.868;10.728;2023-08-20T09:49:49;11.73;;;1.53;;
70367;SDS011;57789;53.868;10.728;2023-08-20T09:52:25;7.80;;;1.87;;
70367;SDS011;57789;53.868;10.728;2023-08-20T09:55:05;5.43;;;1.27;;
70367;SDS011;57789;53.868;10.728;2023-08-20T09:57:41;5.20;;;1.60;;
70367;SDS011;57789;53.868;10.728;2023-08-20T10:00:10;9.30;;;2.90;;
70367;SDS011;57789;53.868;10.728;2023-08-20T10:02:37;4.60;;;1.87;;
70367;SDS011;57789;53.868;10.728;2023-08-20T10:05:10;7.00;;;3.30;;
70367;SDS011;57789;53.868;10.728;2023-08-20T10:07:37;3.23;;;1.80;;
70367;SDS011;57789;53.868;10.728;2023-08-20T10:10:04;4.00;;;1.40;;
70367;SDS011;57789;53.868;10.728;2023-08-20T10:12:33;4.13;;;1.40;;
70367;SDS011;57789;53.868;10.728;2023-08-20T10:15:01;8.93;;;2.20;;
70367;SDS011;57789;53.868;10.728;2023-08-20T10:17:30;3.27;;;1.70;;
70367;SDS011;57789;53.868;10.728;2023-08-20T10:20:00;6.00;;;2.07;;
70367;SDS011;57789;53.868;10.728;2023-08-20T10:22:38;42.10;;;24.77;;
70367;SDS011;57789;53.868;10.728;2023-08-20T10:25:21;9.30;;;2.97;;
70367;SDS011;57789;53.868;10.728;2023-08-20T10:27:48;4.13;;;1.70;;
70367;SDS011;57789;53.868;10.728;2023-08-20T10:30:19;11.53;;;2.30;;
70367;SDS011;57789;53.868;10.728;2023-08-20T10:32:57;13.63;;;6.00;;
70367;SDS011;57789;53.868;10.728;2023-08-20T10:35:27;9.17;;;2.77;;
70367;SDS011;57789;53.868;10.728;2023-08-20T10:38:12;4.17;;;1.20;;
70367;SDS011;57789;53.868;10.728;2023-08-20T10:40:55;6.20;;;1.40;;
70367;SDS011;57789;53.868;10.728;2023-08-20T10:46:17;9.30;;;3.00;;
70367;SDS011;57789;53.868;10.728;2023-08-20T10:48:54;7.27;;;1.90;;
70367;SDS011;57789;53.868;10.728;2023-08-20T10:51:38;6.37;;;1.27;;
70367;SDS011;57789;53.868;10.728;2023-08-20T10:54:08;5.97;;;1.50;;
70367;SDS011;57789;53.868;10.728;2023-08-20T11:01:51;6.23;;;1.00;;
70367;SDS011;57789;53.868;10.728;2023-08-20T11:04:21;10.20;;;1.90;;
70367;SDS011;57789;53.868;10.728;2023-08-20T11:06:55;5.73;;;1.53;;
70367;SDS011;57789;53.868;10.728;2023-08-20T11:09:25;7.80;;;1.77;;
70367;SDS011;57789;53.868;10.728;2023-08-20T11:11:53;3.47;;;1.03;;
70367;SDS011;57789;53.868;10.728;2023-08-20T11:14:21;4.00;;;1.27;;
70367;SDS011;57789;53.868;10.728;2023-08-20T11:16:53;4.03;;;1.10;;
70367;SDS011;57789;53.868;10.728;2023-08-20T11:19:20;7.73;;;1.90;;
70367;SDS011;57789;53.868;10.728;2023-08-20T11:21:48;6.23;;;1.43;;
70367;SDS011;57789;53.868;10.728;2023-08-20T11:24:17;7.43;;;1.27;;
70367;SDS011;57789;53.868;10.728;2023-08-20T11:26:45;2.53;;;1.23;;
70367;SDS011;57789;53.868;10.728;2023-08-20T11:29:16;4.50;;;1.70;;
70367;SDS011;57789;53.868;10.728;2023-08-20T11:31:45;1.63;;;1.03;;
70367;SDS011;57789;53.868;10.728;2023-08-20T11:34:12;9.77;;;1.60;;
70367;SDS011;57789;53.868;10.728;2023-08-20T11:36:38;13.37;;;7.70;;
70367;SDS011;57789;53.868;10.728;2023-08-20T11:39:05;7.07;;;2.17;;
70367;SDS011;57789;53.868;10.728;2023-08-20T11:41:38;3.20;;;1.17;;
70367;SDS011;57789;53.868;10.728;2023-08-20T11:44:07;7.40;;;2.87;;
70367;SDS011;57789;53.868;10.728;2023-08-20T11:46:41;5.73;;;1.60;;
70367;SDS011;57789;53.868;10.728;2023-08-20T11:49:09;5.50;;;1.50;;
70367;SDS011;57789;53.868;10.728;2023-08-20T11:51:36;5.37;;;1.90;;
70367;SDS011;57789;53.868;10.728;2023-08-20T11:54:05;7.33;;;1.70;;
70367;SDS011;57789;53.868;10.728;2023-08-20T11:56:35;7.40;;;2.30;;
70367;SDS011;57789;53.868;10.728;2023-08-20T11:59:12;6.93;;;1.90;;
70367;SDS011;57789;53.868;10.728;2023-08-20T12:01:39;4.03;;;1.07;;
70367;SDS011;57789;53.868;10.728;2023-08-20T12:04:06;3.60;;;1.50;;
70367;SDS011;57789;53.868;10.728;2023-08-20T12:06:33;4.10;;;1.30;;
70367;SDS011;57789;53.868;10.728;2023-08-20T12:11:49;5.97;;;1.90;;
70367;SDS011;57789;53.868;10.728;2023-08-20T12:14:19;3.80;;;1.77;;
70367;SDS011;57789;53.868;10.728;2023-08-20T12:16:45;6.40;;;1.80;;
70367;SDS011;57789;53.868;10.728;2023-08-20T12:19:15;5.83;;;2.70;;
70367;SDS011;57789;53.868;10.728;2023-08-20T12:21:46;4.50;;;1.60;;
70367;SDS011;57789;53.868;10.728;2023-08-20T12:24:19;4.80;;;1.70;;
70367;SDS011;57789;53.868;10.728;2023-08-20T12:26:47;10.57;;;2.33;;
70367;SDS011;57789;53.868;10.728;2023-08-20T12:29:15;6.50;;;2.87;;
70367;SDS011;57789;53.868;10.728;2023-08-20T12:31:46;4.63;;;2.33;;
70367;SDS011;57789;53.868;10.728;2023-08-20T12:34:16;5.67;;;1.70;;
70367;SDS011;57789;53.868;10.728;2023-08-20T12:36:44;3.77;;;1.10;;
70367;SDS011;57789;53.868;10.728;2023-08-20T12:39:13;7.23;;;2.57;;
70367;SDS011;57789;53.868;10.728;2023-08-20T12:41:39;9.13;;;3.50;;
70367;SDS011;57789;53.868;10.728;2023-08-20T12:44:06;3.10;;;1.50;;
70367;SDS011;57789;53.868;10.728;2023-08-20T12:46:35;5.90;;;1.47;;
70367;SDS011;57789;53.868;10.728;2023-08-20T12:49:01;3.20;;;1.37;;
70367;SDS011;57789;53.868;10.728;2023-08-20T12:51:27;8.40;;;2.50;;
70367;SDS011;57789;53.868;10.728;2023-08-20T12:54:05;3.20;;;1.43;;
70367;SDS011;57789;53.868;10.728;2023-08-20T12:56:32;4.63;;;1.57;;
70367;SDS011;57789;53.868;10.728;2023-08-20T12:58:59;3.43;;;1.33;;
70367;SDS011;57789;53.868;10.728;2023-08-20T13:01:31;2.93;;;1.40;;
70367;SDS011;57789;53.868;10.728;2023-08-20T13:04:02;4.13;;;2.93;;
70367;SDS011;57789;53.868;10.728;2023-08-20T13:06:29;9.60;;;1.67;;
70367;SDS011;57789;53.868;10.728;2023-08-20T13:09:19;15.00;;;1.90;;
70367;SDS011;57789;53.868;10.728;2023-08-20T13:11:45;3.50;;;1.10;;
70367;SDS011;57789;53.868;10.728;2023-08-20T13:14:20;8.23;;;1.43;;
70367;SDS011;57789;53.868;10.728;2023-08-20T13:16:47;3.63;;;1.30;;
70367;SDS011;57789;53.868;10.728;2023-08-20T13:19:12;4.20;;;1.17;;
70367;SDS011;57789;53.868;10.728;2023-08-20T13:21:39;7.30;;;1.50;;
70367;SDS011;57789;53.868;10.728;2023-08-20T13:24:07;6.90;;;1.43;;
70367;SDS011;57789;53.868;10.728;2023-08-20T13:26:34;3.10;;;1.30;;
70367;SDS011;57789;53.868;10.728;2023-08-20T13:29:01;4.47;;;1.53;;
70367;SDS011;57789;53.868;10.728;2023-08-20T13:31:28;7.20;;;1.23;;
70367;SDS011;57789;53.868;10.728;2023-08-20T13:33:55;4.20;;;1.50;;
70367;SDS011;57789;53.868;10.728;2023-08-20T13:36:23;1.50;;;0.90;;
70367;SDS011;57789;53.868;10.728;2023-08-20T13:38:50;4.03;;;1.10;;
70367;SDS011;57789;53.868;10.728;2023-08-20T13:41:16;5.27;;;1.17;;
70367;SDS011;57789;53.868;10.728;2023-08-20T13:43:46;6.27;;;1.67;;
70367;SDS011;57789;53.868;10.728;2023-08-20T13:46:16;4.93;;;1.57;;
70367;SDS011;57789;53.868;10.728;2023-08-20T13:48:44;3.47;;;1.30;;
70367;SDS011;57789;53.868;10.728;2023-08-20T13:51:12;3.00;;;1.17;;
70367;SDS011;57789;53.868;10.728;2023-08-20T13:53:40;4.17;;;1.60;;
70367;SDS011;57789;53.868;10.728;2023-08-20T13:56:12;4.97;;;1.70;;
70367;SDS011;57789;53.868;10.728;2023-08-20T13:58:40;3.93;;;1.30;;
70367;SDS011;57789;53.868;10.728;2023-08-20T14:01:09;6.27;;;1.73;;
70367;SDS011;57789;53.868;10.728;2023-08-20T14:03:49;3.40;;;1.27;;
70367;SDS011;57789;53.868;10.728;2023-08-20T14:06:21;5.30;;;2.17;;
70367;SDS011;57789;53.868;10.728;2023-08-20T14:08:54;3.87;;;1.30;;
70367;SDS011;57789;53.868;10.728;2023-08-20T14:11:22;5.23;;;1.23;;
70367;SDS011;57789;53.868;10.728;2023-08-20T14:13:49;5.57;;;1.47;;
70367;SDS011;57789;53.868;10.728;2023-08-20T14:16:15;6.03;;;1.83;;
70367;SDS011;57789;53.868;10.728;2023-08-20T14:18:48;5.90;;;1.87;;
70367;SDS011;57789;53.868;10.728;2023-08-20T14:21:16;4.57;;;1.60;;
70367;SDS011;57789;53.868;10.728;2023-08-20T14:23:48;2.07;;;1.27;;
70367;SDS011;57789;53.868;10.728;2023-08-20T14:26:20;2.53;;;1.30;;
70367;SDS011;57789;53.868;10.728;2023-08-20T14:28:50;5.10;;;1.40;;
70367;SDS011;57789;53.868;10.728;2023-08-20T14:31:17;8.57;;;1.77;;
70367;SDS011;57789;53.868;10.728;2023-08-20T14:33:44;6.60;;;3.10;;
70367;SDS011;57789;53.868;10.728;2023-08-20T14:36:11;7.83;;;1.57;;
70367;SDS011;57789;53.868;10.728;2023-08-20T14:38:37;6.47;;;2.53;;
70367;SDS011;57789;53.868;10.728;2023-08-20T14:41:04;3.63;;;1.60;;
70367;SDS011;57789;53.868;10.728;2023-08-20T14:43:30;7.17;;;2.40;;
70367;SDS011;57789;53.868;10.728;2023-08-20T14:45:57;4.90;;;1.87;;
70367;SDS011;57789;53.868;10.728;2023-08-20T14:48:28;3.20;;;1.30;;
70367;SDS011;57789;53.868;10.728;2023-08-20T14:50:56;8.37;;;1.63;;
70367;SDS011;57789;53.868;10.728;2023-08-20T14:53:22;6.90;;;1.63;;